createdAt,value
2022-12-01T00:03:31.902Z,19.23
2022-12-01T00:13:34.357Z,18.40
2022-12-01T00:23:35.872Z,17.40
2022-12-01T00:33:38.308Z,18.50
2022-12-01T00:43:39.876Z,17.93
2022-12-01T00:53:41.455Z,17.45
2022-12-01T01:03:42.972Z,16.83
2022-12-01T01:13:44.468Z,17.10
2022-12-01T01:23:46.047Z,16.70
2022-12-01T01:33:48.159Z,16.47
2022-12-01T01:43:55.889Z,16.40
2022-12-01T01:54:04.120Z,14.90
2022-12-01T02:04:07.183Z,16.83
2022-12-01T02:14:13.901Z,15.07
2022-12-01T02:24:46.156Z,15.27
2022-12-01T02:34:59.138Z,15.03
2022-12-01T02:45:04.532Z,15.70
2022-12-01T02:55:06.414Z,14.93
2022-12-01T03:05:27.861Z,15.60
2022-12-01T03:15:38.135Z,16.17
2022-12-01T03:25:43.441Z,14.40
2022-12-01T03:35:55.921Z,14.93
2022-12-01T03:46:04.467Z,17.23
2022-12-01T03:56:07.634Z,17.77
2022-12-01T04:06:09.157Z,17.83
2022-12-01T04:16:10.691Z,19.13
2022-12-01T04:26:15.774Z,17.70
2022-12-01T04:36:17.560Z,16.80
2022-12-01T04:46:19.069Z,18.53
2022-12-01T04:56:20.678Z,19.37
2022-12-01T05:06:25.452Z,18.47
2022-12-01T05:16:32.083Z,19.88
2022-12-01T05:26:33.862Z,18.60
2022-12-01T05:36:35.407Z,18.43
2022-12-01T05:46:36.889Z,17.98
2022-12-01T05:56:38.392Z,18.00
2022-12-01T06:06:39.936Z,17.77
2022-12-01T06:16:41.509Z,18.53
2022-12-01T06:26:43.021Z,19.77
2022-12-01T06:36:44.509Z,19.10
2022-12-01T06:46:46.029Z,19.87
2022-12-01T06:56:47.565Z,19.23
2022-12-01T07:06:49.276Z,19.23
2022-12-01T07:16:51.146Z,19.47
2022-12-01T07:26:52.692Z,20.57
2022-12-01T07:36:54.199Z,19.10
2022-12-01T07:46:55.691Z,18.20
2022-12-01T07:56:57.186Z,20.10
2022-12-01T08:06:58.668Z,19.30
2022-12-01T08:17:00.429Z,20.27
2022-12-01T08:27:02.019Z,19.73
2022-12-01T08:37:03.551Z,17.23
2022-12-01T08:47:05.035Z,18.33
2022-12-01T08:57:06.754Z,19.92
2022-12-01T09:07:10.447Z,19.93
2022-12-01T09:17:11.961Z,17.98
2022-12-01T09:27:13.488Z,19.73
2022-12-01T09:37:15.021Z,16.77
2022-12-01T09:47:33.793Z,18.80
2022-12-01T09:57:37.754Z,16.30
2022-12-01T10:07:46.319Z,17.53
2022-12-01T10:17:50.908Z,20.90
2022-12-01T10:27:55.291Z,20.67
2022-12-01T10:38:00.560Z,21.08
2022-12-01T10:48:12.401Z,22.70
2022-12-01T10:58:16.928Z,23.67
2022-12-01T11:08:25.169Z,22.90
2022-12-01T11:18:34.422Z,23.67
2022-12-01T11:28:40.083Z,25.55
2022-12-01T11:38:41.764Z,24.17
2022-12-01T11:48:57.830Z,25.50
2022-12-01T11:59:03.019Z,23.07
2022-12-01T12:09:13.293Z,22.70
2022-12-01T12:19:34.372Z,21.35
2022-12-01T12:29:50.150Z,21.07
2022-12-01T12:40:03.213Z,20.07
2022-12-01T12:50:28.223Z,17.60
2022-12-01T13:00:29.962Z,16.67
2022-12-01T13:11:00.072Z,18.08
2022-12-01T13:21:03.977Z,18.50
2022-12-01T13:31:09.089Z,20.67
2022-12-01T13:41:17.961Z,17.20
2022-12-01T13:51:19.588Z,17.07
2022-12-01T14:01:21.533Z,18.35
2022-12-01T14:11:25.447Z,18.40
2022-12-01T14:22:02.965Z,18.53
2022-12-01T14:32:20.136Z,18.80
2022-12-01T14:42:30.753Z,18.80
2022-12-01T14:52:37.228Z,18.50
2022-12-01T15:02:47.885Z,16.83
2022-12-01T15:12:51.530Z,17.40
2022-12-01T15:22:54.128Z,17.67
2022-12-01T15:32:55.886Z,18.03
2022-12-01T15:43:02.595Z,20.20
2022-12-01T15:53:17.793Z,20.70
2022-12-01T16:03:19.478Z,21.03
2022-12-01T16:13:41.629Z,21.93
2022-12-01T16:23:43.241Z,23.50
2022-12-01T16:33:44.813Z,22.95
2022-12-01T16:43:59.447Z,24.53
2022-12-01T16:54:09.300Z,26.27
2022-12-01T17:04:10.827Z,27.15
2022-12-01T17:14:12.396Z,28.23
2022-12-01T17:24:18.735Z,28.83
2022-12-01T17:34:20.664Z,28.80
2022-12-01T17:44:22.432Z,27.00
2022-12-01T17:54:23.949Z,28.17
2022-12-01T18:04:25.532Z,28.70
2022-12-01T18:14:27.096Z,30.17
2022-12-01T18:24:28.621Z,29.05
2022-12-01T18:34:30.111Z,30.00
2022-12-01T18:44:31.661Z,30.27
2022-12-01T18:54:33.190Z,31.10
2022-12-01T19:04:34.800Z,32.37
2022-12-01T19:14:36.444Z,32.58
2022-12-01T19:24:37.970Z,33.43
2022-12-01T19:34:39.494Z,34.47
2022-12-01T19:44:41.033Z,34.95
2022-12-01T19:54:42.546Z,37.63
2022-12-01T20:04:44.135Z,36.78
2022-12-01T20:14:46.188Z,37.93
2022-12-01T20:24:47.951Z,38.60
2022-12-01T20:34:49.797Z,35.47
2022-12-01T20:44:51.665Z,37.30
2022-12-01T20:54:53.433Z,36.57
2022-12-01T21:04:58.835Z,37.65
2022-12-01T21:15:24.856Z,38.23
2022-12-01T21:25:26.363Z,37.93
2022-12-01T21:35:27.853Z,36.80
2022-12-01T21:45:31.083Z,38.73
2022-12-01T21:55:34.445Z,36.95
2022-12-01T22:05:42.172Z,36.57
2022-12-01T22:15:43.735Z,38.00
2022-12-01T22:25:46.844Z,34.88
2022-12-01T22:35:50.333Z,37.50
2022-12-01T22:46:06.889Z,40.23
2022-12-01T22:56:30.552Z,37.43
2022-12-01T23:06:50.589Z,36.37
2022-12-01T23:16:56.481Z,35.85
2022-12-01T23:26:57.966Z,36.23
2022-12-01T23:36:59.468Z,35.20
2022-12-01T23:47:01.311Z,36.03
2022-12-01T23:57:10.782Z,35.70
